sensor_id;sensor_type;location;lat;lon;timestamp;pressure;altitude;pressure_sealevel;temperature;humidity
52651;BME280;38537;47.226;39.702;2023-02-03T00:00:40;100744.28;;;2.13;71.06
52651;BME280;38537;47.226;39.702;2023-02-03T00:03:07;100769.97;;;2.30;71.17
52651;BME280;38537;47.226;39.702;2023-02-03T00:05:34;100762.53;;;2.31;71.13
52651;BME280;38537;47.226;39.702;2023-02-03T00:08:04;100771.75;;;2.36;71.05
52651;BME280;38537;47.226;39.702;2023-02-03T00:10:37;100773.16;;;2.39;70.68
52651;BME280;38537;47.226;39.702;2023-02-03T00:13:05;100762.44;;;2.26;70.81
52651;BME280;38537;47.226;39.702;2023-02-03T00:15:33;100752.13;;;2.21;70.85
52651;BME280;38537;47.226;39.702;2023-02-03T00:18:00;100768.78;;;2.26;71.14
52651;BME280;38537;47.226;39.702;2023-02-03T00:20:27;100771.78;;;2.25;71.41
52651;BME280;38537;47.226;39.702;2023-02-03T00:23:05;100769.03;;;2.25;71.24
52651;BME280;38537;47.226;39.702;2023-02-03T00:25:32;100764.84;;;2.22;70.63
52651;BME280;38537;47.226;39.702;2023-02-03T00:28:00;100755.72;;;2.22;71.57
52651;BME280;38537;47.226;39.702;2023-02-03T00:30:28;100755.97;;;2.20;71.21
52651;BME280;38537;47.226;39.702;2023-02-03T00:32:55;100749.63;;;2.20;70.96
52651;BME280;38537;47.226;39.702;2023-02-03T00:35:23;100757.66;;;2.21;71.08
52651;BME280;38537;47.226;39.702;2023-02-03T00:37:54;100741.28;;;2.15;71.39
52651;BME280;38537;47.226;39.702;2023-02-03T00:40:24;100751.06;;;2.22;71.30
52651;BME280;38537;47.226;39.702;2023-02-03T00:42:52;100750.69;;;2.19;70.98
52651;BME280;38537;47.226;39.702;2023-02-03T00:45:20;100735.06;;;2.08;71.34
52651;BME280;38537;47.226;39.702;2023-02-03T00:47:48;100744.28;;;2.13;70.81
52651;BME280;38537;47.226;39.702;2023-02-03T00:50:16;100745.00;;;2.09;71.10
52651;BME280;38537;47.226;39.702;2023-02-03T00:52:43;100755.88;;;2.15;71.05
52651;BME280;38537;47.226;39.702;2023-02-03T00:55:10;100745.94;;;2.14;71.52
52651;BME280;38537;47.226;39.702;2023-02-03T00:57:38;100751.31;;;2.21;71.13
52651;BME280;38537;47.226;39.702;2023-02-03T01:00:05;100731.22;;;2.09;71.13
52651;BME280;38537;47.226;39.702;2023-02-03T01:02:35;100744.47;;;2.23;71.11
52651;BME280;38537;47.226;39.702;2023-02-03T01:05:02;100750.34;;;2.27;71.43
52651;BME280;38537;47.226;39.702;2023-02-03T01:07:32;100743.63;;;2.23;71.28
52651;BME280;38537;47.226;39.702;2023-02-03T01:10:00;100728.06;;;2.17;70.30
52651;BME280;38537;47.226;39.702;2023-02-03T01:12:31;100710.75;;;2.16;70.75
52651;BME280;38537;47.226;39.702;2023-02-03T01:14:58;100738.19;;;2.39;70.81
52651;BME280;38537;47.226;39.702;2023-02-03T01:17:25;100737.41;;;2.56;70.62
52651;BME280;38537;47.226;39.702;2023-02-03T01:19:53;100718.19;;;2.61;70.36
52651;BME280;38537;47.226;39.702;2023-02-03T01:22:20;100741.22;;;2.83;70.03
52651;BME280;38537;47.226;39.702;2023-02-03T01:24:48;100725.69;;;2.94;69.19
52651;BME280;38537;47.226;39.702;2023-02-03T01:27:15;100731.66;;;3.19;69.36
52651;BME280;38537;47.226;39.702;2023-02-03T01:29:43;100735.72;;;3.33;68.20
52651;BME280;38537;47.226;39.702;2023-02-03T01:32:10;100714.81;;;3.37;68.04
52651;BME280;38537;47.226;39.702;2023-02-03T01:34:37;100709.69;;;3.63;67.64
52651;BME280;38537;47.226;39.702;2023-02-03T01:37:04;100723.53;;;3.85;66.93
52651;BME280;38537;47.226;39.702;2023-02-03T01:39:32;100719.94;;;3.84;66.41
52651;BME280;38537;47.226;39.702;2023-02-03T01:42:01;100714.41;;;3.84;66.29
52651;BME280;38537;47.226;39.702;2023-02-03T01:47:02;100727.09;;;3.63;66.23
52651;BME280;38537;47.226;39.702;2023-02-03T01:49:35;100708.06;;;3.45;66.57
52651;BME280;38537;47.226;39.702;2023-02-03T01:52:03;100723.78;;;3.44;66.78
52651;BME280;38537;47.226;39.702;2023-02-03T01:54:35;100722.03;;;3.38;66.61
52651;BME280;38537;47.226;39.702;2023-02-03T01:57:10;100732.47;;;3.36;67.41
52651;BME280;38537;47.226;39.702;2023-02-03T01:59:39;100728.97;;;3.24;66.84
52651;BME280;38537;47.226;39.702;2023-02-03T02:02:07;100728.31;;;3.17;67.21
52651;BME280;38537;47.226;39.702;2023-02-03T02:05:09;100729.63;;;3.31;67.22
52651;BME280;38537;47.226;39.702;2023-02-03T02:07:40;100722.09;;;3.27;67.20
52651;BME280;38537;47.226;39.702;2023-02-03T02:10:09;100714.75;;;3.32;66.69
52651;BME280;38537;47.226;39.702;2023-02-03T02:12:36;100726.75;;;3.60;66.61
52651;BME280;38537;47.226;39.702;2023-02-03T02:15:04;100708.44;;;3.54;66.10
52651;BME280;38537;47.226;39.702;2023-02-03T02:34:32;100724.88;;;3.43;65.53
52651;BME280;38537;47.226;39.702;2023-02-03T02:37:33;100722.88;;;3.22;65.91
52651;BME280;38537;47.226;39.702;2023-02-03T02:48:09;100714.44;;;2.67;67.82
52651;BME280;38537;47.226;39.702;2023-02-03T02:50:44;100700.28;;;2.47;67.50
52651;BME280;38537;47.226;39.702;2023-02-03T02:53:13;100696.06;;;2.27;67.67
52651;BME280;38537;47.226;39.702;2023-02-03T02:55:43;100717.41;;;2.20;68.71
52651;BME280;38537;47.226;39.702;2023-02-03T02:58:14;100728.66;;;2.19;68.69
52651;BME280;38537;47.226;39.702;2023-02-03T03:00:43;100729.31;;;2.09;68.73
52651;BME280;38537;47.226;39.702;2023-02-03T03:03:19;100723.44;;;2.05;69.57
52651;BME280;38537;47.226;39.702;2023-02-03T03:05:52;100725.72;;;1.97;69.23
52651;BME280;38537;47.226;39.702;2023-02-03T03:08:36;100724.09;;;1.84;69.47
52651;BME280;38537;47.226;39.702;2023-02-03T03:11:05;100717.28;;;1.75;69.21
52651;BME280;38537;47.226;39.702;2023-02-03T03:13:41;100737.25;;;1.82;70.28
52651;BME280;38537;47.226;39.702;2023-02-03T03:16:12;100710.59;;;1.71;70.08
52651;BME280;38537;47.226;39.702;2023-02-03T03:18:47;100732.34;;;1.84;70.33
52651;BME280;38537;47.226;39.702;2023-02-03T03:21:20;100722.41;;;1.83;70.45
52651;BME280;38537;47.226;39.702;2023-02-03T03:23:50;100728.75;;;1.84;70.42
52651;BME280;38537;47.226;39.702;2023-02-03T03:26:44;100730.75;;;2.00;70.86
52651;BME280;38537;47.226;39.702;2023-02-03T03:29:23;100733.66;;;1.93;69.95
52651;BME280;38537;47.226;39.702;2023-02-03T03:31:51;100727.09;;;1.83;69.43
52651;BME280;38537;47.226;39.702;2023-02-03T03:34:18;100718.13;;;1.76;69.88
52651;BME280;38537;47.226;39.702;2023-02-03T03:37:00;100724.69;;;1.75;70.17
52651;BME280;38537;47.226;39.702;2023-02-03T03:39:36;100722.09;;;1.68;70.29
52651;BME280;38537;47.226;39.702;2023-02-03T03:42:37;100744.69;;;1.82;70.42
52651;BME280;38537;47.226;39.702;2023-02-03T03:48:05;100753.19;;;1.80;70.52
52651;BME280;38537;47.226;39.702;2023-02-03T03:50:39;100727.81;;;1.78;70.17
52651;BME280;38537;47.226;39.702;2023-02-03T03:53:08;100731.41;;;1.79;70.13
52651;BME280;38537;47.226;39.702;2023-02-03T03:55:38;100746.84;;;1.91;69.71
52651;BME280;38537;47.226;39.702;2023-02-03T03:58:10;100727.44;;;1.86;69.85
52651;BME280;38537;47.226;39.702;2023-02-03T04:00:40;100716.78;;;1.78;69.92
52651;BME280;38537;47.226;39.702;2023-02-03T04:03:12;100716.44;;;1.75;69.81
52651;BME280;38537;47.226;39.702;2023-02-03T04:05:41;100710.69;;;1.76;69.60
52651;BME280;38537;47.226;39.702;2023-02-03T04:08:08;100729.38;;;1.86;69.87
52651;BME280;38537;47.226;39.702;2023-02-03T04:10:39;100727.44;;;1.86;70.06
52651;BME280;38537;47.226;39.702;2023-02-03T04:13:08;100740.72;;;1.89;69.97
52651;BME280;38537;47.226;39.702;2023-02-03T04:15:35;100733.56;;;1.88;69.90
52651;BME280;38537;47.226;39.702;2023-02-03T04:18:04;100719.09;;;1.69;69.94
52651;BME280;38537;47.226;39.702;2023-02-03T04:20:31;100718.88;;;1.71;70.32
52651;BME280;38537;47.226;39.702;2023-02-03T04:22:59;100737.16;;;1.77;69.71
52651;BME280;38537;47.226;39.702;2023-02-03T04:25:28;100755.25;;;1.73;70.24
52651;BME280;38537;47.226;39.702;2023-02-03T04:27:55;100746.72;;;1.75;70.02
52651;BME280;38537;47.226;39.702;2023-02-03T04:30:22;100721.25;;;1.56;70.30
52651;BME280;38537;47.226;39.702;2023-02-03T04:32:50;100712.41;;;1.42;69.86
52651;BME280;38537;47.226;39.702;2023-02-03T04:35:18;100741.84;;;1.65;69.96
52651;BME280;38537;47.226;39.702;2023-02-03T04:37:46;100746.38;;;1.59;70.21
52651;BME280;38537;47.226;39.702;2023-02-03T04:40:13;100759.44;;;1.64;70.31
52651;BME280;38537;47.226;39.702;2023-02-03T04:42:41;100759.31;;;1.59;70.24
52651;BME280;38537;47.226;39.702;2023-02-03T04:45:10;100748.16;;;1.54;70.60
52651;BME280;38537;47.226;39.702;2023-02-03T04:47:38;100760.16;;;1.71;70.34
52651;BME280;38537;47.226;39.702;2023-02-03T04:50:06;100756.91;;;1.62;70.46
52651;BME280;38537;47.226;39.702;2023-02-03T04:52:33;100756.66;;;1.64;70.44
52651;BME280;38537;47.226;39.702;2023-02-03T04:55:00;100768.03;;;1.67;70.44
52651;BME280;38537;47.226;39.702;2023-02-03T04:57:30;100766.25;;;1.61;70.34
52651;BME280;38537;47.226;39.702;2023-02-03T04:59:57;100766.97;;;1.57;70.19
52651;BME280;38537;47.226;39.702;2023-02-03T05:02:24;100747.47;;;1.47;70.88
52651;BME280;38537;47.226;39.702;2023-02-03T05:04:55;100749.75;;;1.50;70.55
52651;BME280;38537;47.226;39.702;2023-02-03T05:07:30;100764.44;;;1.55;70.87
52651;BME280;38537;47.226;39.702;2023-02-03T05:10:00;100762.53;;;1.56;70.47
52651;BME280;38537;47.226;39.702;2023-02-03T05:12:34;100740.41;;;1.39;70.75
52651;BME280;38537;47.226;39.702;2023-02-03T05:15:03;100782.28;;;1.64;70.27
52651;BME280;38537;47.226;39.702;2023-02-03T05:17:31;100765.88;;;1.69;70.20
52651;BME280;38537;47.226;39.702;2023-02-03T05:20:02;100739.81;;;1.60;70.42
52651;BME280;38537;47.226;39.702;2023-02-03T05:22:30;100745.78;;;1.69;69.91
52651;BME280;38537;47.226;39.702;2023-02-03T05:24:58;100751.75;;;1.78;69.83
52651;BME280;38537;47.226;39.702;2023-02-03T05:27:25;100766.13;;;1.91;70.08
52651;BME280;38537;47.226;39.702;2023-02-03T05:29:56;100772.41;;;2.03;70.14
52651;BME280;38537;47.226;39.702;2023-02-03T05:32:30;100782.72;;;2.08;69.77
52651;BME280;38537;47.226;39.702;2023-02-03T05:35:00;100758.09;;;1.90;69.63
52651;BME280;38537;47.226;39.702;2023-02-03T05:37:29;100764.06;;;1.87;69.37
52651;BME280;38537;47.226;39.702;2023-02-03T05:39:56;100765.75;;;1.88;69.63
52651;BME280;38537;47.226;39.702;2023-02-03T05:42:48;100782.59;;;2.03;69.37
52651;BME280;38537;47.226;39.702;2023-02-03T05:45:16;100781.28;;;2.05;68.80
52651;BME280;38537;47.226;39.702;2023-02-03T05:47:43;100747.44;;;1.93;69.13
52651;BME280;38537;47.226;39.702;2023-02-03T05:50:10;100744.28;;;2.01;68.82
52651;BME280;38537;47.226;39.702;2023-02-03T05:52:37;100771.88;;;2.30;69.22
52651;BME280;38537;47.226;39.702;2023-02-03T05:55:05;100756.19;;;2.30;68.82
52651;BME280;38537;47.226;39.702;2023-02-03T05:57:32;100770.91;;;2.36;68.78
52651;BME280;38537;47.226;39.702;2023-02-03T05:59:59;100765.66;;;2.23;68.10
52651;BME280;38537;47.226;39.702;2023-02-03T06:02:37;100771.59;;;2.43;68.29
52651;BME280;38537;47.226;39.702;2023-02-03T06:05:04;100767.28;;;2.47;68.23
52651;BME280;38537;47.226;39.702;2023-02-03T06:07:32;100764.38;;;2.54;68.26
52651;BME280;38537;47.226;39.702;2023-02-03T06:09:59;100747.38;;;2.45;68.26
52651;BME280;38537;47.226;39.702;2023-02-03T06:12:26;100764.97;;;2.56;68.22
52651;BME280;38537;47.226;39.702;2023-02-03T06:14:55;100762.47;;;2.54;67.82
52651;BME280;38537;47.226;39.702;2023-02-03T06:17:22;100773.84;;;2.58;67.96
52651;BME280;38537;47.226;39.702;2023-02-03T06:19:49;100782.00;;;2.53;67.74
52651;BME280;38537;47.226;39.702;2023-02-03T06:22:19;100758.81;;;2.37;67.80
52651;BME280;38537;47.226;39.702;2023-02-03T06:24:46;100755.75;;;2.50;68.40
52651;BME280;38537;47.226;39.702;2023-02-03T06:27:14;100779.34;;;2.58;68.42
52651;BME280;38537;47.226;39.702;2023-02-03T06:29:42;100760.09;;;2.46;68.16
52651;BME280;38537;47.226;39.702;2023-02-03T06:32:09;100766.97;;;2.60;67.89
52651;BME280;38537;47.226;39.702;2023-02-03T06:34:36;100752.09;;;2.61;68.24
52651;BME280;38537;47.226;39.702;2023-02-03T06:37:03;100787.66;;;2.74;67.37
52651;BME280;38537;47.226;39.702;2023-02-03T06:39:30;100770.66;;;2.66;67.55
52651;BME280;38537;47.226;39.702;2023-02-03T06:41:58;100778.59;;;2.62;67.91
52651;BME280;38537;47.226;39.702;2023-02-03T06:44:25;100795.00;;;2.69;67.24
52651;BME280;38537;47.226;39.702;2023-02-03T06:46:53;100779.50;;;2.51;66.90
52651;BME280;38537;47.226;39.702;2023-02-03T06:49:20;100790.69;;;2.61;67.19
52651;BME280;38537;47.226;39.702;2023-02-03T06:51:47;100778.94;;;2.37;66.84
52651;BME280;38537;47.226;39.702;2023-02-03T06:54:15;100792.44;;;2.39;66.60
52651;BME280;38537;47.226;39.702;2023-02-03T06:56:42;100780.03;;;2.25;67.28
52651;BME280;38537;47.226;39.702;2023-02-03T06:59:09;100791.53;;;2.33;67.32
52651;BME280;38537;47.226;39.702;2023-02-03T07:01:37;100775.41;;;2.14;67.15
52651;BME280;38537;47.226;39.702;2023-02-03T07:04:04;100790.03;;;2.14;67.27
52651;BME280;38537;47.226;39.702;2023-02-03T07:06:32;100781.75;;;2.02;67.99
52651;BME280;38537;47.226;39.702;2023-02-03T07:09:02;100774.72;;;1.95;67.71
52651;BME280;38537;47.226;39.702;2023-02-03T07:11:31;100787.28;;;2.02;67.97
52651;BME280;38537;47.226;39.702;2023-02-03T07:13:58;100778.53;;;2.05;67.53
52651;BME280;38537;47.226;39.702;2023-02-03T07:16:25;100775.78;;;2.05;68.20
52651;BME280;38537;47.226;39.702;2023-02-03T07:18:53;100791.91;;;2.25;68.28
52651;BME280;38537;47.226;39.702;2023-02-03T07:21:25;100779.91;;;2.31;67.59
52651;BME280;38537;47.226;39.702;2023-02-03T07:23:52;100785.25;;;2.50;67.30
52651;BME280;38537;47.226;39.702;2023-02-03T07:26:19;100797.97;;;2.79;67.26
52651;BME280;38537;47.226;39.702;2023-02-03T07:28:48;100795.25;;;2.96;67.24
52651;BME280;38537;47.226;39.702;2023-02-03T07:31:16;100783.13;;;2.97;66.47
52651;BME280;38537;47.226;39.702;2023-02-03T07:33:43;100805.66;;;3.22;66.18
52651;BME280;38537;47.226;39.702;2023-02-03T07:36:12;100804.56;;;3.23;65.76
52651;BME280;38537;47.226;39.702;2023-02-03T07:38:40;100796.19;;;3.18;65.35
52651;BME280;38537;47.226;39.702;2023-02-03T07:41:07;100789.50;;;3.14;65.41
52651;BME280;38537;47.226;39.702;2023-02-03T07:43:35;100800.34;;;3.04;65.21
52651;BME280;38537;47.226;39.702;2023-02-03T07:46:02;100786.38;;;2.94;65.13
52651;BME280;38537;47.226;39.702;2023-02-03T07:48:30;100781.50;;;2.84;65.84
52651;BME280;38537;47.226;39.702;2023-02-03T07:51:00;100789.88;;;2.89;65.58
52651;BME280;38537;47.226;39.702;2023-02-03T07:53:28;100764.28;;;2.77;65.50
52651;BME280;38537;47.226;39.702;2023-02-03T07:56:02;100790.81;;;3.12;65.61
52651;BME280;38537;47.226;39.702;2023-02-03T07:58:33;100781.63;;;3.06;65.75
52651;BME280;38537;47.226;39.702;2023-02-03T08:01:00;100770.00;;;3.04;65.60
52651;BME280;38537;47.226;39.702;2023-02-03T08:03:28;100766.69;;;3.19;65.20
52651;BME280;38537;47.226;39.702;2023-02-03T08:05:56;100761.91;;;3.14;65.40
52651;BME280;38537;47.226;39.702;2023-02-03T08:08:23;100779.66;;;3.18;65.40
52651;BME280;38537;47.226;39.702;2023-02-03T08:10:51;100779.53;;;3.13;65.86
52651;BME280;38537;47.226;39.702;2023-02-03T08:13:18;100771.50;;;3.12;66.05
52651;BME280;38537;47.226;39.702;2023-02-03T08:15:46;100760.81;;;3.15;65.94
52651;BME280;38537;47.226;39.702;2023-02-03T08:18:13;100780.22;;;3.37;66.27
52651;BME280;38537;47.226;39.702;2023-02-03T08:20:41;100758.22;;;3.25;65.66
52651;BME280;38537;47.226;39.702;2023-02-03T08:23:09;100763.19;;;3.40;65.25
52651;BME280;38537;47.226;39.702;2023-02-03T08:25:36;100773.53;;;3.66;65.27
52651;BME280;38537;47.226;39.702;2023-02-03T08:28:03;100758.13;;;3.54;64.91
52651;BME280;38537;47.226;39.702;2023-02-03T08:30:31;100766.66;;;3.69;64.67
52651;BME280;38537;47.226;39.702;2023-02-03T08:32:58;100767.75;;;3.68;65.18
52651;BME280;38537;47.226;39.702;2023-02-03T08:35:25;100736.56;;;3.51;65.44
52651;BME280;38537;47.226;39.702;2023-02-03T08:37:54;100740.97;;;3.52;65.50
52651;BME280;38537;47.226;39.702;2023-02-03T08:40:21;100746.59;;;3.57;65.72
52651;BME280;38537;47.226;39.702;2023-02-03T08:42:49;100724.34;;;3.47;65.37
52651;BME280;38537;47.226;39.702;2023-02-03T08:45:16;100721.00;;;3.61;66.15
52651;BME280;38537;47.226;39.702;2023-02-03T08:47:43;100727.38;;;3.84;65.51
52651;BME280;38537;47.226;39.702;2023-02-03T08:50:11;100718.25;;;3.83;65.60
52651;BME280;38537;47.226;39.702;2023-02-03T08:52:41;100743.97;;;4.05;65.35
52651;BME280;38537;47.226;39.702;2023-02-03T08:55:08;100723.59;;;4.11;65.16
52651;BME280;38537;47.226;39.702;2023-02-03T08:57:36;100718.84;;;4.07;65.04
52651;BME280;38537;47.226;39.702;2023-02-03T09:00:08;100729.78;;;4.19;65.04
52651;BME280;38537;47.226;39.702;2023-02-03T09:02:36;100710.75;;;4.22;65.47
52651;BME280;38537;47.226;39.702;2023-02-03T09:05:03;100693.72;;;4.30;65.21
52651;BME280;38537;47.226;39.702;2023-02-03T09:07:30;100708.34;;;4.53;64.88
52651;BME280;38537;47.226;39.702;2023-02-03T09:09:58;100683.22;;;4.59;64.82
52651;BME280;38537;47.226;39.702;2023-02-03T09:12:25;100713.78;;;4.69;64.11
52651;BME280;38537;47.226;39.702;2023-02-03T09:14:52;100702.06;;;4.62;64.21
52651;BME280;38537;47.226;39.702;2023-02-03T09:17:20;100721.50;;;4.67;64.20
52651;BME280;38537;47.226;39.702;2023-02-03T09:19:47;100696.19;;;4.54;64.53
52651;BME280;38537;47.226;39.702;2023-02-03T09:22:15;100718.09;;;4.60;64.49
52651;BME280;38537;47.226;39.702;2023-02-03T09:24:42;100715.25;;;4.55;64.30
52651;BME280;38537;47.226;39.702;2023-02-03T09:27:09;100695.72;;;4.62;64.35
52651;BME280;38537;47.226;39.702;2023-02-03T09:29:37;100697.13;;;4.64;63.96
52651;BME280;38537;47.226;39.702;2023-02-03T09:32:04;100689.56;;;4.55;63.62
52651;BME280;38537;47.226;39.702;2023-02-03T09:34:35;100703.22;;;4.66;63.77
52651;BME280;38537;47.226;39.702;2023-02-03T09:37:03;100704.47;;;4.80;63.40
52651;BME280;38537;47.226;39.702;2023-02-03T09:39:30;100709.16;;;4.80;63.05
52651;BME280;38537;47.226;39.702;2023-02-03T09:47:41;100683.16;;;4.76;63.49
52651;BME280;38537;47.226;39.702;2023-02-03T09:50:20;100682.66;;;4.84;63.87
52651;BME280;38537;47.226;39.702;2023-02-03T09:52:49;100677.69;;;4.86;63.49
52651;BME280;38537;47.226;39.702;2023-02-03T09:55:35;100688.09;;;5.06;64.07
52651;BME280;38537;47.226;39.702;2023-02-03T09:58:09;100660.88;;;4.93;63.32
52651;BME280;38537;47.226;39.702;2023-02-03T10:22:36;100653.75;;;5.44;62.51
52651;BME280;38537;47.226;39.702;2023-02-03T10:25:15;100663.06;;;5.70;63.13
52651;BME280;38537;47.226;39.702;2023-02-03T10:27:47;100672.16;;;5.60;61.52
52651;BME280;38537;47.226;39.702;2023-02-03T10:32:48;100662.97;;;5.55;61.48
52651;BME280;38537;47.226;39.702;2023-02-03T10:35:17;100645.31;;;5.66;62.54
52651;BME280;38537;47.226;39.702;2023-02-03T10:37:50;100653.34;;;5.67;61.12
52651;BME280;38537;47.226;39.702;2023-02-03T10:40:20;100655.16;;;5.89;62.03
52651;BME280;38537;47.226;39.702;2023-02-03T10:42:51;100646.47;;;5.75;61.79
52651;BME280;38537;47.226;39.702;2023-02-03T10:45:39;100639.34;;;5.89;61.82
52651;BME280;38537;47.226;39.702;2023-02-03T10:48:14;100643.00;;;5.95;61.94
52651;BME280;38537;47.226;39.702;2023-02-03T10:50:45;100655.16;;;5.89;60.95
52651;BME280;38537;47.226;39.702;2023-02-03T10:55:46;100647.97;;;5.93;60.98
52651;BME280;38537;47.226;39.702;2023-02-03T10:58:18;100631.84;;;5.84;60.35
52651;BME280;38537;47.226;39.702;2023-02-03T11:01:03;100653.81;;;5.96;61.42
52651;BME280;38537;47.226;39.702;2023-02-03T11:03:31;100647.44;;;5.96;60.71
52651;BME280;38537;47.226;39.702;2023-02-03T11:06:15;100661.16;;;6.38;62.33
52651;BME280;38537;47.226;39.702;2023-02-03T11:08:46;100647.88;;;6.45;60.97
52651;BME280;38537;47.226;39.702;2023-02-03T11:11:28;100646.75;;;6.41;60.19
52651;BME280;38537;47.226;39.702;2023-02-03T11:16:34;100652.03;;;6.47;60.22
52651;BME280;38537;47.226;39.702;2023-02-03T11:19:25;100642.03;;;6.46;60.32
52651;BME280;38537;47.226;39.702;2023-02-03T11:21:53;100625.91;;;6.33;60.88
52651;BME280;38537;47.226;39.702;2023-02-03T11:24:25;100645.66;;;6.57;60.24
52651;BME280;38537;47.226;39.702;2023-02-03T11:26:57;100642.59;;;6.53;59.99
52651;BME280;38537;47.226;39.702;2023-02-03T11:29:27;100621.97;;;6.04;60.08
52651;BME280;38537;47.226;39.702;2023-02-03T11:31:58;100623.63;;;6.00;60.77
52651;BME280;38537;47.226;39.702;2023-02-03T11:34:32;100620.47;;;5.81;61.24
52651;BME280;38537;47.226;39.702;2023-02-03T11:37:32;100622.47;;;5.91;61.28
52651;BME280;38537;47.226;39.702;2023-02-03T11:42:35;100601.56;;;5.63;62.12
52651;BME280;38537;47.226;39.702;2023-02-03T11:45:13;100615.88;;;5.49;61.80
52651;BME280;38537;47.226;39.702;2023-02-03T11:47:50;100606.69;;;5.39;62.62
52651;BME280;38537;47.226;39.702;2023-02-03T11:56:16;100618.00;;;5.32;62.88
52651;BME280;38537;47.226;39.702;2023-02-03T12:07:10;100622.00;;;5.57;62.47
52651;BME280;38537;47.226;39.702;2023-02-03T12:12:34;100612.75;;;5.36;63.07
52651;BME280;38537;47.226;39.702;2023-02-03T12:17:57;100625.81;;;5.40;62.56
52651;BME280;38537;47.226;39.702;2023-02-03T12:20:30;100636.03;;;5.40;62.87
52651;BME280;38537;47.226;39.702;2023-02-03T12:36:29;100570.28;;;5.20;61.78
52651;BME280;38537;47.226;39.702;2023-02-03T12:39:06;100574.41;;;5.12;62.11
52651;BME280;38537;47.226;39.702;2023-02-03T12:41:43;100582.19;;;5.21;62.36
52651;BME280;38537;47.226;39.702;2023-02-03T12:44:30;100579.22;;;5.32;62.81
52651;BME280;38537;47.226;39.702;2023-02-03T12:47:01;100582.53;;;5.29;61.99
52651;BME280;38537;47.226;39.702;2023-02-03T12:49:40;100576.13;;;5.24;62.51
52651;BME280;38537;47.226;39.702;2023-02-03T12:54:58;100567.13;;;5.48;61.32
52651;BME280;38537;47.226;39.702;2023-02-03T12:57:35;100563.53;;;5.53;61.36
52651;BME280;38537;47.226;39.702;2023-02-03T13:03:02;100564.69;;;5.67;61.17
52651;BME280;38537;47.226;39.702;2023-02-03T13:08:34;100538.66;;;5.58;61.58
52651;BME280;38537;47.226;39.702;2023-02-03T13:11:23;100557.78;;;5.60;60.82
52651;BME280;38537;47.226;39.702;2023-02-03T13:14:13;100541.03;;;5.34;61.95
52651;BME280;38537;47.226;39.702;2023-02-03T13:16:44;100538.25;;;5.34;61.93
52651;BME280;38537;47.226;39.702;2023-02-03T13:19:19;100531.09;;;5.43;62.03
52651;BME280;38537;47.226;39.702;2023-02-03T13:21:48;100534.44;;;5.40;61.89
52651;BME280;38537;47.226;39.702;2023-02-03T13:24:16;100540.78;;;5.46;62.48
52651;BME280;38537;47.226;39.702;2023-02-03T13:32:40;100536.50;;;5.13;63.69
52651;BME280;38537;47.226;39.702;2023-02-03T13:40:39;100549.47;;;5.07;64.20
52651;BME280;38537;47.226;39.702;2023-02-03T13:43:13;100525.34;;;4.98;64.70
52651;BME280;38537;47.226;39.702;2023-02-03T13:46:03;100552.94;;;5.35;64.49
52651;BME280;38537;47.226;39.702;2023-02-03T13:48:34;100526.59;;;5.27;64.44
52651;BME280;38537;47.226;39.702;2023-02-03T13:51:11;100544.09;;;5.38;64.14
52651;BME280;38537;47.226;39.702;2023-02-03T13:53:42;100531.91;;;5.34;64.02
52651;BME280;38537;47.226;39.702;2023-02-03T13:56:20;100536.00;;;5.26;64.11
52651;BME280;38537;47.226;39.702;2023-02-03T14:02:43;100534.00;;;5.11;65.45
52651;BME280;38537;47.226;39.702;2023-02-03T14:05:44;100531.97;;;4.97;65.32
52651;BME280;38537;47.226;39.702;2023-02-03T14:16:42;100513.09;;;4.89;64.51
52651;BME280;38537;47.226;39.702;2023-02-03T14:22:03;100538.03;;;4.99;64.69
52651;BME280;38537;47.226;39.702;2023-02-03T14:24:38;100532.81;;;4.97;65.08
52651;BME280;38537;47.226;39.702;2023-02-03T14:29:43;100512.56;;;4.92;64.81
52651;BME280;38537;47.226;39.702;2023-02-03T14:32:11;100511.78;;;4.96;65.13
52651;BME280;38537;47.226;39.702;2023-02-03T14:34:44;100515.38;;;4.97;65.38
52651;BME280;38537;47.226;39.702;2023-02-03T14:37:16;100515.16;;;5.08;64.75
52651;BME280;38537;47.226;39.702;2023-02-03T14:46:10;100520.72;;;5.13;64.98
52651;BME280;38537;47.226;39.702;2023-02-03T15:00:00;100498.56;;;5.81;63.81
52651;BME280;38537;47.226;39.702;2023-02-03T15:02:32;100495.50;;;5.82;63.37
52651;BME280;38537;47.226;39.702;2023-02-03T15:07:49;100466.97;;;5.82;62.74
52651;BME280;38537;47.226;39.702;2023-02-03T15:10:42;100499.72;;;6.10;63.09
52651;BME280;38537;47.226;39.702;2023-02-03T15:13:31;100487.53;;;6.16;62.95
52651;BME280;38537;47.226;39.702;2023-02-03T15:16:01;100481.44;;;6.04;62.36
52651;BME280;38537;47.226;39.702;2023-02-03T15:18:33;100476.63;;;5.74;62.20
52651;BME280;38537;47.226;39.702;2023-02-03T15:21:02;100468.06;;;5.81;62.75
52651;BME280;38537;47.226;39.702;2023-02-03T15:23:38;100470.06;;;6.01;62.49
52651;BME280;38537;47.226;39.702;2023-02-03T15:26:22;100475.63;;;6.06;61.99
52651;BME280;38537;47.226;39.702;2023-02-03T15:28:59;100470.06;;;6.21;62.35
52651;BME280;38537;47.226;39.702;2023-02-03T15:31:33;100485.31;;;6.18;60.95
52651;BME280;38537;47.226;39.702;2023-02-03T15:34:26;100468.41;;;6.15;61.16
52651;BME280;38537;47.226;39.702;2023-02-03T15:36:59;100472.31;;;6.24;61.71
52651;BME280;38537;47.226;39.702;2023-02-03T15:39:47;100460.94;;;6.26;61.40
52651;BME280;38537;47.226;39.702;2023-02-03T15:42:32;100474.78;;;6.21;61.12
52651;BME280;38537;47.226;39.702;2023-02-03T15:48:05;100487.81;;;6.15;60.94
52651;BME280;38537;47.226;39.702;2023-02-03T15:53:19;100479.78;;;6.44;61.21
52651;BME280;38537;47.226;39.702;2023-02-03T15:55:55;100474.25;;;6.44;61.39